Antwerp, NY (13608)

5:26 AM EST on February 06, 2016 (GMT -0500)
little bow and gravel road | | Change Station
CLOSE
Current Station
Personal Weather Station
Location: Gouverneur, NY
Elevation: 397 ft
Nearby Weather Stations

Elev 397 ft 44.35 °N, 75.51 °W | Updated 9 seconds ago

Overcast
Overcast
30.2 °F
Feels Like 30 °F
N
0.9
Wind Variable Wind from South
Gusts 2.5 mph

Today
High -- | Low -- °F
--% Chance of Precip.
Yesterday
High -- | Low -- °F
Precip. -- in
Pressure 30.23 in
Visibility 10.0 miles
Clouds Scattered Clouds 2500 ft
Mostly Cloudy 3300 ft
Overcast 4200 ft
Windchill 30 °F
Dew Point 27 °F
Humidity 86%
Rainfall 0.00 in
Snow Depth Not available.
7:15 AM 5:18 PM
Waning Crescent, 6% visible
METAR KGTB 060958Z AUTO 23009KT 10SM -SN SCT025 BKN033 OVC042 M01/M04 A3020 RMK AO2 SNE32SNB44 CIG 022 RWY21 SLP236 P0000 T10131040
Pressure 30.23 in
Visibility 10.0 miles
Clouds Scattered Clouds 2500 ft
Mostly Cloudy 3300 ft
Overcast 4200 ft
Windchill 30 °F
Dew Point 27 °F
Humidity 86%
Rainfall 0.00 in
Snow Depth Not available.
7:15 AM 5:18 PM
Waning Crescent, 6% visible
METAR KGTB 060958Z AUTO 23009KT 10SM -SN SCT025 BKN033 OVC042 M01/M04 A3020 RMK AO2 SNE32SNB44 CIG 022 RWY21 SLP236 P0000 T10131040

10-Day Weather Forecast

Almanac

Astronomy

Feb. 06, 2016 Rise Set
Actual Time
Civil Twilight
Nautical Twilight
Astronomical Twilight
Moon
Length of Visible Light
Length of Day
Tomorrow will be .
, % of the Moon is Illuminated

Today's Extremes

State Highs State Lows

Community

WunderPhotos

Upload Photos

1,890,933 photos uploaded!

WunderBlog® & News

Nearby

Air Quality

  Air Quality AQ Index Pollutant
Not available.

Snow Depth

Station Depth Elevation

Earthquake Activity

City Distance Mag. Time & Date
Minimum magnitude displayed is 2.5.

Coastal Water Temperatures

Place Temperature

Stations

Nearby Weather Stations

Station Location Temp. Windchill Dew Point Humidity Wind Precip. Elev Updated Type
                   

Watches & Warnings

There are currently no watches in effect.